Time;durP1;ratioP1;P1;durP2;ratioP2;P2;SDS_P1;SDS_P2;PMS_P1;PMS_P2;Temp;Humidity;BMP_temperature;BMP_pressure;BME280_temperature;BME280_humidity;BME280_pressure;Samples;Min_cycle;Max_cycle;Signal;HPM_P1;HPM_P2
2020/12/11 00:02:01;;;;;;;10.27;4.60;;;;;;;11.86;100.00;100628.06;5011505;28;20561;-76
2020/12/11 00:04:27;;;;;;;9.20;4.17;;;;;;;11.89;100.00;100632.25;5008067;28;20508;-77
2020/12/11 00:06:56;;;;;;;7.50;3.83;;;;;;;11.91;100.00;100630.31;5013080;28;20178;-76
2020/12/11 00:09:21;;;;;;;12.27;4.77;;;;;;;11.92;100.00;100632.84;5013066;28;20170;-80
2020/12/11 00:11:47;;;;;;;10.37;4.20;;;;;;;11.93;100.00;100636.31;5013083;28;20568;-78
2020/12/11 00:14:13;;;;;;;9.43;4.10;;;;;;;11.99;100.00;100629.75;5015051;28;20235;-75
2020/12/11 00:16:38;;;;;;;9.10;3.87;;;;;;;12.02;100.00;100629.56;5018193;28;20452;-77
2020/12/11 00:19:04;;;;;;;8.23;3.70;;;;;;;11.98;100.00;100633.34;5012262;28;20174;-76
2020/12/11 00:21:37;;;;;;;12.63;4.43;;;;;;;12.04;100.00;100628.47;5011954;28;20638;-77
2020/12/11 00:24:03;;;;;;;8.47;3.83;;;;;;;12.06;100.00;100612.53;5010404;28;20633;-75
2020/12/11 00:26:28;;;;;;;11.13;4.40;;;;;;;12.06;100.00;100618.66;5011434;28;20479;-74
2020/12/11 00:28:54;;;;;;;11.07;4.80;;;;;;;12.11;100.00;100619.16;5010943;28;20579;-76
2020/12/11 00:31:23;;;;;;;12.20;3.80;;;;;;;12.15;100.00;100623.22;5011873;28;20535;-82
2020/12/11 00:33:48;;;;;;;9.70;3.77;;;;;;;12.15;100.00;100607.41;5011653;28;20252;-76
2020/12/11 00:36:14;;;;;;;13.53;4.47;;;;;;;12.14;100.00;100602.28;5011832;28;20481;-77
2020/12/11 00:38:39;;;;;;;10.40;3.83;;;;;;;12.15;100.00;100603.94;5012587;28;20201;-79
2020/12/11 00:41:05;;;;;;;11.60;4.30;;;;;;;12.12;100.00;100597.13;5012096;28;20186;-79
2020/12/11 00:43:30;;;;;;;9.47;3.50;;;;;;;12.13;100.00;100600.59;5012865;28;20189;-75
2020/12/11 00:45:56;;;;;;;9.40;4.13;;;;;;;12.07;100.00;100601.91;5011639;28;20185;-77
2020/12/11 00:48:21;;;;;;;7.73;3.60;;;;;;;12.03;100.00;100597.00;5012289;28;20178;-77
2020/12/11 00:50:46;;;;;;;11.03;4.57;;;;;;;11.94;100.00;100594.09;5011468;28;20174;-76
2020/12/11 00:53:12;;;;;;;12.13;3.90;;;;;;;11.89;100.00;100588.31;5010099;28;20170;-78
2020/12/11 00:55:37;;;;;;;8.47;3.27;;;;;;;11.87;100.00;100584.97;5011608;28;20206;-76
2020/12/11 00:58:03;;;;;;;12.30;4.80;;;;;;;11.89;100.00;100585.69;5011928;28;20185;-77
2020/12/11 01:00:28;;;;;;;10.57;4.73;;;;;;;11.88;100.00;100585.81;5012089;28;20178;-77
2020/12/11 01:02:54;;;;;;;11.97;4.40;;;;;;;11.88;100.00;100575.28;5011656;28;20166;-76
2020/12/11 01:05:19;;;;;;;11.70;4.70;;;;;;;11.90;100.00;100574.19;5014706;28;20174;-77
2020/12/11 01:07:44;;;;;;;8.83;4.10;;;;;;;11.98;100.00;100570.16;5016166;28;20166;-77
2020/12/11 01:10:10;;;;;;;10.17;4.30;;;;;;;11.98;100.00;100570.16;5011753;28;20181;-79
2020/12/11 01:12:35;;;;;;;14.93;5.47;;;;;;;11.98;100.00;100575.41;5011747;28;20673;-78
2020/12/11 01:15:01;;;;;;;8.97;4.10;;;;;;;12.00;100.00;100569.06;5011895;28;20268;-79
2020/12/11 01:17:26;;;;;;;11.67;5.57;;;;;;;12.07;100.00;100574.72;5017286;28;20196;-78
2020/12/11 01:19:52;;;;;;;13.27;5.77;;;;;;;12.15;100.00;100575.81;5014112;28;20548;-79
2020/12/11 01:22:17;;;;;;;11.73;3.90;;;;;;;12.13;100.00;100567.19;5011467;28;20213;-77
2020/12/11 01:24:43;;;;;;;14.30;5.00;;;;;;;12.15;100.00;100564.44;5011180;28;20574;-78
2020/12/11 01:27:08;;;;;;;11.50;5.13;;;;;;;12.15;100.00;100553.91;5017118;28;20715;-79
2020/12/11 01:29:34;;;;;;;10.33;4.37;;;;;;;12.12;100.00;100557.63;5011804;28;20187;-77
2020/12/11 01:31:59;;;;;;;10.67;4.83;;;;;;;12.14;100.00;100566.25;5011268;28;20167;-77
2020/12/11 01:34:26;;;;;;;9.60;4.87;;;;;;;12.15;100.00;100559.19;5011443;28;20229;-80
2020/12/11 01:36:51;;;;;;;14.50;4.60;;;;;;;12.21;100.00;100564.81;5011921;28;20213;-80
2020/12/11 01:39:17;;;;;;;13.10;5.07;;;;;;;12.21;100.00;100558.72;5011551;28;20939;-81
2020/12/11 01:41:43;;;;;;;9.53;4.57;;;;;;;12.17;100.00;100559.91;5010525;28;20218;-76
2020/12/11 01:44:09;;;;;;;10.70;4.90;;;;;;;12.19;100.00;100558.00;5011952;28;20205;-80
2020/12/11 01:46:41;;;;;;;14.70;5.07;;;;;;;12.27;100.00;100552.16;5011504;28;20793;-78
2020/12/11 01:49:08;;;;;;;17.63;5.37;;;;;;;12.30;100.00;100550.09;5009937;28;21069;-79
2020/12/11 01:51:35;;;;;;;20.00;5.10;;;;;;;12.18;100.00;100535.25;5011094;28;20816;-77
2020/12/11 01:54:02;;;;;;;15.20;5.10;;;;;;;12.08;100.00;100534.25;5010864;28;20418;-76
2020/12/11 01:56:31;;;;;;;19.80;5.67;;;;;;;12.05;100.00;100534.50;5011041;28;20452;-80
2020/12/11 01:59:02;;;;;;;19.60;6.03;;;;;;;12.10;100.00;100514.78;5010553;28;20456;-76
2020/12/11 02:01:35;;;;;;;13.83;5.17;;;;;;;12.12;100.00;100509.38;5011077;28;20412;-76
2020/12/11 02:04:02;;;;;;;15.73;5.57;;;;;;;12.18;100.00;100508.91;5011291;28;20413;-80
2020/12/11 02:06:28;;;;;;;15.63;6.20;;;;;;;12.21;100.00;100517.41;5010983;28;20418;-78
2020/12/11 02:08:57;;;;;;;11.67;6.33;;;;;;;12.22;100.00;100516.44;5010730;28;20421;-79
2020/12/11 02:11:24;;;;;;;16.20;6.33;;;;;;;12.21;100.00;100517.41;5011017;28;20185;-80
2020/12/11 02:13:50;;;;;;;16.20;6.23;;;;;;;12.29;100.00;100516.81;5010984;28;20421;-81
2020/12/11 02:16:23;;;;;;;12.27;5.63;;;;;;;12.17;100.00;100520.41;5010739;28;20461;-81
2020/12/11 02:18:50;;;;;;;21.90;7.03;;;;;;;12.15;100.00;100530.19;5010958;28;20428;-82
2020/12/11 02:21:16;;;;;;;15.70;5.50;;;;;;;12.13;100.00;100524.22;5010374;28;20417;-82
2020/12/11 02:23:42;;;;;;;13.37;7.00;;;;;;;12.10;100.00;100527.94;5010946;28;20405;-82
2020/12/11 02:26:08;;;;;;;15.60;6.37;;;;;;;12.10;100.00;100519.22;5010523;28;20949;-82
2020/12/11 02:28:35;;;;;;;13.10;6.07;;;;;;;12.11;100.00;100515.59;5011969;28;20451;-82
2020/12/11 02:31:02;;;;;;;16.70;5.40;;;;;;;12.04;100.00;100509.97;5010384;28;20453;-76
2020/12/11 02:33:28;;;;;;;9.60;6.07;;;;;;;12.00;100.00;100500.63;5011288;28;20405;-75
2020/12/11 02:35:53;;;;;;;10.40;5.63;;;;;;;11.97;100.00;100492.13;5010506;28;20499;-78
2020/12/11 02:38:19;;;;;;;14.30;6.57;;;;;;;12.08;100.00;100497.38;5013854;28;20644;-80
2020/12/11 02:40:53;;;;;;;13.33;6.07;;;;;;;12.02;100.00;100501.34;5014747;28;20178;-81
2020/12/11 02:43:19;;;;;;;15.60;5.10;;;;;;;12.04;100.00;100495.97;5014848;28;20568;-76
2020/12/11 02:45:46;;;;;;;10.90;5.50;;;;;;;12.04;100.00;100501.22;5016070;28;20432;-78
2020/12/11 02:48:12;;;;;;;25.83;6.23;;;;;;;12.01;100.00;100497.03;5014337;28;20431;-80
2020/12/11 02:50:38;;;;;;;20.33;6.33;;;;;;;12.04;100.00;100490.69;5014989;28;20402;-76
2020/12/11 02:53:04;;;;;;;15.00;6.97;;;;;;;12.05;100.00;100500.28;5014452;28;20952;-78
2020/12/11 02:55:29;;;;;;;20.03;6.53;;;;;;;11.98;100.00;100514.88;5014278;28;20566;-75
2020/12/11 02:57:55;;;;;;;13.03;6.10;;;;;;;12.00;100.00;100511.16;5006101;28;20607;-75
2020/12/11 03:00:20;;;;;;;14.40;6.80;;;;;;;12.04;100.00;100524.94;5014338;28;20174;-76
2020/12/11 03:02:46;;;;;;;24.53;7.30;;;;;;;12.05;100.00;100516.91;5015171;28;20236;-80
2020/12/11 03:05:11;;;;;;;15.93;5.87;;;;;;;12.00;100.00;100515.56;5014904;28;20194;-76
2020/12/11 03:07:37;;;;;;;16.83;5.70;;;;;;;12.04;100.00;100512.59;5014323;28;20166;-78
2020/12/11 03:10:03;;;;;;;15.53;6.13;;;;;;;12.10;100.00;100521.84;5014811;28;20171;-79
2020/12/11 03:12:28;;;;;;;13.77;6.50;;;;;;;12.18;100.00;100530.00;5014747;28;20237;-79
2020/12/11 03:14:54;;;;;;;16.60;4.93;;;;;;;12.14;100.00;100520.63;5014827;28;20421;-79
2020/12/11 03:17:19;;;;;;;12.60;5.47;;;;;;;12.16;100.00;100522.19;5014611;28;20197;-78
2020/12/11 03:19:45;;;;;;;13.73;6.20;;;;;;;12.13;100.00;100519.78;5014342;28;20181;-79
2020/12/11 03:22:10;;;;;;;15.13;6.63;;;;;;;12.13;100.00;100516.31;5014450;28;20205;-77
2020/12/11 03:24:36;;;;;;;15.00;5.67;;;;;;;12.09;100.00;100518.38;5014269;28;20185;-74
2020/12/11 03:27:01;;;;;;;14.90;6.00;;;;;;;12.05;100.00;100514.28;5013722;28;20194;-77
2020/12/11 03:29:27;;;;;;;11.90;5.37;;;;;;;12.07;100.00;100511.53;5014385;28;20202;-80
2020/12/11 03:31:52;;;;;;;14.20;6.43;;;;;;;12.06;100.00;100507.22;5014676;28;20170;-78
2020/12/11 03:34:18;;;;;;;11.60;5.90;;;;;;;12.02;100.00;100513.69;5014268;28;20174;-79
2020/12/11 03:36:43;;;;;;;12.73;7.20;;;;;;;12.03;100.00;100510.09;5013796;28;20208;-76
2020/12/11 03:39:08;;;;;;;14.57;6.30;;;;;;;12.05;100.00;100508.19;5014332;28;20645;-79
2020/12/11 03:41:34;;;;;;;11.20;5.20;;;;;;;12.03;100.00;100503.03;5014741;28;20579;-80
2020/12/11 03:43:59;;;;;;;17.47;6.27;;;;;;;12.02;100.00;100500.53;5014265;28;20190;-80
2020/12/11 03:46:25;;;;;;;16.93;7.03;;;;;;;11.98;100.00;100502.53;5013987;28;20194;-78
2020/12/11 03:48:51;;;;;;;14.83;5.53;;;;;;;11.98;100.00;100497.28;5013009;28;20239;-78
2020/12/11 03:51:21;;;;;;;14.83;7.23;;;;;;;11.97;100.00;100492.97;5014152;28;20183;-78
2020/12/11 03:53:47;;;;;;;16.63;7.03;;;;;;;11.92;100.00;100487.19;5020739;28;20410;-76
2020/12/11 03:56:16;;;;;;;19.70;7.57;;;;;;;11.93;100.00;100483.59;5022043;28;20451;-76
2020/12/11 03:58:43;;;;;;;11.63;4.80;;;;;;;11.91;100.00;100489.00;5015320;28;20424;-75
2020/12/11 04:01:10;;;;;;;13.37;5.97;;;;;;;11.86;100.00;100479.75;5013672;28;20414;-78
2020/12/11 04:03:36;;;;;;;14.43;6.10;;;;;;;11.82;100.00;100476.53;5012455;28;20421;-78
2020/12/11 04:06:04;;;;;;;17.90;6.37;;;;;;;11.78;100.00;100475.06;5013710;28;20504;-80
2020/12/11 04:08:30;;;;;;;22.03;7.90;;;;;;;11.66;100.00;100470.75;5013305;28;20935;-78
2020/12/11 04:10:55;;;;;;;12.70;6.27;;;;;;;11.67;100.00;100465.34;5013384;28;20419;-79
2020/12/11 04:13:21;;;;;;;16.63;5.90;;;;;;;11.68;100.00;100461.75;5013194;28;20228;-79
2020/12/11 04:15:46;;;;;;;12.97;5.37;;;;;;;11.66;100.00;100478.63;5013660;28;20544;-76
2020/12/11 04:18:12;;;;;;;14.40;5.77;;;;;;;11.75;100.00;100485.81;5013643;28;20198;-76
2020/12/11 04:20:37;;;;;;;12.13;5.27;;;;;;;11.65;100.00;100490.13;5013512;28;20170;-79
2020/12/11 04:23:02;;;;;;;16.13;6.20;;;;;;;11.69;100.00;100502.06;5012960;28;20166;-77
2020/12/11 04:25:28;;;;;;;16.33;5.50;;;;;;;11.62;100.00;100492.97;5013491;28;20178;-80
2020/12/11 04:27:53;;;;;;;11.93;5.10;;;;;;;11.57;100.00;100509.13;5013301;28;20187;-77
2020/12/11 04:30:19;;;;;;;10.77;4.97;;;;;;;11.44;100.00;100502.25;5013590;28;20163;-79
2020/12/11 04:32:44;;;;;;;12.87;5.30;;;;;;;11.48;100.00;100487.88;5013163;28;20182;-76
2020/12/11 04:35:10;;;;;;;12.67;4.93;;;;;;;11.55;100.00;100495.22;5012825;28;20264;-78
2020/12/11 04:37:35;;;;;;;19.57;6.00;;;;;;;11.53;100.00;100491.88;5013234;28;20227;-79
2020/12/11 04:40:00;;;;;;;10.07;4.53;;;;;;;11.56;100.00;100507.44;5012891;28;20173;-80
2020/12/11 04:42:31;;;;;;;11.90;5.53;;;;;;;11.61;100.00;100496.56;5012882;28;20182;-77
2020/12/11 04:44:57;;;;;;;10.33;4.80;;;;;;;11.58;100.00;100502.06;4995641;28;20548;-80
2020/12/11 04:47:22;;;;;;;13.13;5.20;;;;;;;11.62;100.00;100509.59;5013498;28;20963;-81
2020/12/11 04:49:48;;;;;;;11.43;4.70;;;;;;;11.64;100.00;100505.06;5013063;28;20181;-81
2020/12/11 04:52:18;;;;;;;12.43;5.70;;;;;;;11.58;100.00;100509.94;5012388;28;20166;-80
2020/12/11 04:54:48;;;;;;;18.47;5.27;;;;;;;11.55;100.00;100511.00;5013237;28;20186;-80
2020/12/11 04:57:20;;;;;;;15.03;5.60;;;;;;;11.51;100.00;100517.47;5012845;28;20566;-81
2020/12/11 04:59:46;;;;;;;11.43;5.43;;;;;;;11.55;100.00;100520.69;5012050;28;20414;-78
2020/12/11 05:02:12;;;;;;;10.80;6.00;;;;;;;11.50;100.00;100521.03;5020272;28;20427;-79
2020/12/11 05:04:39;;;;;;;13.43;4.70;;;;;;;11.47;100.00;100525.69;5012331;28;20166;-79
2020/12/11 05:07:05;;;;;;;11.83;5.40;;;;;;;11.45;100.00;100520.53;5012319;28;20436;-76
2020/12/11 05:09:30;;;;;;;13.73;4.03;;;;;;;11.45;100.00;100524.97;5012542;28;20406;-78
2020/12/11 05:11:56;;;;;;;13.23;5.60;;;;;;;11.50;100.00;100523.69;5012433;28;20198;-78
2020/12/11 05:14:33;;;;;;;10.10;5.50;;;;;;;11.52;100.00;100528.81;5012555;28;20193;-78
2020/12/11 05:17:01;;;;;;;11.33;4.93;;;;;;;11.54;100.00;100525.13;5011992;28;20228;-77
2020/12/11 05:19:34;;;;;;;8.80;3.33;;;;;;;11.54;100.00;100533.00;5012116;28;20483;-76
2020/12/11 05:22:12;;;;;;;13.10;4.60;;;;;;;11.59;100.00;100533.50;5012231;28;20422;-77
2020/12/11 05:24:45;;;;;;;10.53;4.80;;;;;;;11.61;100.00;100542.13;5009229;28;20413;-77
2020/12/11 05:27:44;;;;;;;15.00;5.60;;;;;;;11.57;100.00;100545.13;5019792;28;20494;-76
2020/12/11 05:30:09;;;;;;;11.20;4.07;;;;;;;11.56;100.00;100548.66;4986226;28;20526;-74
2020/12/11 05:32:38;;;;;;;12.90;4.83;;;;;;;11.61;100.00;100546.53;5016049;28;20508;-77
2020/12/11 05:35:21;;;;;;;8.47;3.70;;;;;;;11.57;100.00;100551.22;5012027;28;20684;-76
2020/12/11 05:38:09;;;;;;;11.33;4.80;;;;;;;11.52;100.00;100552.50;5012498;28;20425;-78
2020/12/11 05:40:38;;;;;;;14.13;5.43;;;;;;;11.53;100.00;100559.44;5000867;28;20444;-77
2020/12/11 05:43:05;;;;;;;9.97;5.67;;;;;;;11.47;100.00;100554.63;5011984;28;20437;-77
2020/12/11 05:45:36;;;;;;;19.70;7.10;;;;;;;11.46;100.00;100556.41;5012197;28;20424;-77
2020/12/11 05:48:04;;;;;;;13.00;5.43;;;;;;;11.50;100.00;100562.31;5011964;28;20825;-75
2020/12/11 05:50:30;;;;;;;13.97;5.80;;;;;;;11.49;100.00;100565.88;5011644;28;20429;-74
2020/12/11 05:52:56;;;;;;;15.10;5.40;;;;;;;11.54;100.00;100572.47;5009727;28;20437;-75
2020/12/11 05:55:22;;;;;;;13.00;4.70;;;;;;;11.55;100.00;100566.25;5006440;28;20170;-75
2020/12/11 05:57:53;;;;;;;8.70;4.00;;;;;;;11.60;100.00;100569.41;5007686;28;20421;-76
2020/12/11 06:00:19;;;;;;;14.63;5.63;;;;;;;11.61;100.00;100567.59;5002604;28;20426;-78
2020/12/11 06:02:50;;;;;;;12.53;3.93;;;;;;;11.59;100.00;100564.25;5014046;28;20457;-75
2020/12/11 06:05:17;;;;;;;14.93;4.73;;;;;;;11.70;100.00;100566.06;5011791;28;20969;-74
2020/12/11 06:07:44;;;;;;;11.17;4.77;;;;;;;11.67;100.00;100561.88;5011280;28;20516;-74
2020/12/11 06:10:22;;;;;;;11.70;4.90;;;;;;;11.65;100.00;100571.69;5011500;28;20475;-74
2020/12/11 06:12:48;;;;;;;15.30;3.90;;;;;;;11.66;100.00;100582.09;5010927;28;20488;-75
2020/12/11 06:15:40;;;;;;;9.00;4.43;;;;;;;11.67;100.00;100575.88;5010418;28;20512;-73
2020/12/11 06:18:25;;;;;;;7.47;3.97;;;;;;;11.80;100.00;100578.50;5010377;28;20409;-73
2020/12/11 06:20:54;;;;;;;10.33;4.30;;;;;;;11.77;100.00;100581.28;5015675;28;20511;-75
2020/12/11 06:23:20;;;;;;;17.40;4.47;;;;;;;11.80;100.00;100575.84;4997575;28;20766;-74
2020/12/11 06:26:09;;;;;;;15.33;3.87;;;;;;;11.90;100.00;100589.16;5010982;28;21046;-73
2020/12/11 06:28:35;;;;;;;12.00;4.03;;;;;;;11.86;100.00;100590.34;5009585;28;20212;-75
2020/12/11 06:31:01;;;;;;;10.37;3.27;;;;;;;11.89;100.00;100592.75;5010247;28;20814;-74
2020/12/11 06:33:31;;;;;;;9.57;4.73;;;;;;;11.80;100.00;100603.94;5011090;28;20177;-75
2020/12/11 06:35:58;;;;;;;9.23;4.13;;;;;;;11.89;100.00;100601.50;5010645;28;20480;-73
2020/12/11 06:38:43;;;;;;;8.70;3.53;;;;;;;11.96;100.00;100601.88;5012114;28;20406;-74
2020/12/11 06:41:13;;;;;;;10.60;4.00;;;;;;;11.93;100.00;100605.56;5011249;28;20428;-73
2020/12/11 06:43:44;;;;;;;7.90;3.40;;;;;;;12.00;100.00;100603.31;5010519;28;20421;-73
2020/12/11 06:46:15;;;;;;;9.70;3.70;;;;;;;11.97;100.00;100605.34;5011169;28;20419;-73
2020/12/11 06:49:06;;;;;;;9.63;3.77;;;;;;;11.98;100.00;100607.84;5010174;28;20418;-73
2020/12/11 06:51:33;;;;;;;11.13;4.00;;;;;;;11.96;100.00;100612.41;5010649;28;20432;-73
2020/12/11 06:54:00;;;;;;;9.40;3.10;;;;;;;11.82;100.00;100612.59;5010676;28;20448;-72
2020/12/11 06:56:42;;;;;;;7.47;3.10;;;;;;;11.70;100.00;100609.03;5010054;28;20471;-74
2020/12/11 06:59:22;;;;;;;8.73;3.50;;;;;;;11.76;100.00;100616.47;5009963;28;20970;-74
2020/12/11 07:01:56;;;;;;;6.97;3.70;;;;;;;11.77;100.00;100618.16;4991315;28;20911;-74
2020/12/11 07:04:23;;;;;;;10.93;4.33;;;;;;;11.65;100.00;100621.69;5008033;28;20421;-74
2020/12/11 07:06:53;;;;;;;18.73;5.90;;;;;;;11.66;100.00;100607.59;5007558;28;20405;-73
2020/12/11 07:09:20;;;;;;;10.30;3.77;;;;;;;11.71;100.00;100604.59;5010759;28;20405;-75
2020/12/11 07:11:47;;;;;;;10.70;3.40;;;;;;;11.58;100.00;100610.78;5007867;28;20419;-73
2020/12/11 07:14:13;;;;;;;15.20;3.40;;;;;;;11.60;100.00;100608.88;5012340;28;20397;-73
2020/12/11 07:16:44;;;;;;;7.40;3.53;;;;;;;11.49;100.00;100608.00;5010204;28;20463;-74
2020/12/11 07:19:10;;;;;;;8.20;3.27;;;;;;;11.43;100.00;100601.38;4989339;28;20426;-74
2020/12/11 07:21:37;;;;;;;7.13;3.30;;;;;;;11.34;100.00;100610.78;5009337;28;20507;-73
2020/12/11 07:24:04;;;;;;;7.50;3.00;;;;;;;11.38;100.00;100603.47;5006795;28;20428;-73
2020/12/11 07:26:30;;;;;;;9.70;4.60;;;;;;;11.46;100.00;100605.56;5011822;28;20417;-73
2020/12/11 07:29:06;;;;;;;14.20;5.90;;;;;;;11.44;100.00;100602.22;5013025;28;20467;-74
2020/12/11 07:31:42;;;;;;;7.87;4.07;;;;;;;11.45;100.00;100594.19;5013982;28;20558;-75
2020/12/11 07:34:28;;;;;;;8.37;3.53;;;;;;;11.42;100.00;100583.06;5014053;28;20429;-73
2020/12/11 07:36:57;;;;;;;9.70;3.60;;;;;;;11.32;100.00;100581.09;5014653;28;20500;-72
2020/12/11 07:39:24;;;;;;;9.93;4.63;;;;;;;11.29;100.00;100581.31;5008168;28;20436;-73
2020/12/11 07:41:50;;;;;;;12.47;4.57;;;;;;;11.42;100.00;100575.19;5013769;28;20447;-73
2020/12/11 07:44:31;;;;;;;11.43;4.97;;;;;;;11.45;100.00;100565.25;5011201;28;20412;-74
2020/12/11 07:46:59;;;;;;;10.27;5.63;;;;;;;11.40;100.00;100570.00;5013205;28;20409;-72
2020/12/11 07:49:35;;;;;;;12.63;5.70;;;;;;;11.38;100.00;100572.75;5011569;28;20476;-72
2020/12/11 07:52:02;;;;;;;11.27;6.70;;;;;;;11.48;100.00;100567.66;5013051;28;20500;-75
2020/12/11 07:54:34;;;;;;;15.33;6.10;;;;;;;11.47;100.00;100571.25;5012769;28;20845;-74
2020/12/11 07:57:16;;;;;;;20.17;7.20;;;;;;;11.46;100.00;100574.00;5012392;28;20467;-75
2020/12/11 07:59:58;;;;;;;15.73;8.93;;;;;;;11.45;100.00;100588.09;5004019;28;20998;-74
2020/12/11 08:02:25;;;;;;;23.17;13.43;;;;;;;11.32;100.00;100588.13;5012798;28;20426;-73
2020/12/11 08:04:51;;;;;;;31.87;19.03;;;;;;;11.34;100.00;100589.72;5017926;28;20431;-74
2020/12/11 08:07:31;;;;;;;32.27;20.77;;;;;;;11.35;100.00;100594.03;5019364;28;20409;-73
2020/12/11 08:10:33;;;;;;;34.10;17.93;;;;;;;11.24;100.00;100601.00;5013677;28;20466;-72
2020/12/11 08:13:16;;;;;;;19.60;11.07;;;;;;;11.24;100.00;100601.84;5006174;28;20425;-72
2020/12/11 08:15:44;;;;;;;20.33;10.60;;;;;;;11.27;100.00;100606.91;5013505;28;20873;-72
2020/12/11 08:18:13;;;;;;;17.10;9.37;;;;;;;11.25;100.00;100608.78;4995475;28;20472;-73
2020/12/11 08:20:53;;;;;;;17.97;9.50;;;;;;;11.32;100.00;100607.38;5012809;28;20433;-73
2020/12/11 08:23:23;;;;;;;20.53;10.83;;;;;;;11.50;100.00;100618.41;5001104;28;20409;-73
2020/12/11 08:26:13;;;;;;;12.67;7.50;;;;;;;11.65;100.00;100606.75;5012379;28;20433;-73
2020/12/11 08:28:39;;;;;;;11.57;5.80;;;;;;;11.74;100.00;100615.75;5001343;28;20881;-73
2020/12/11 08:31:20;;;;;;;16.80;5.30;;;;;;;11.56;100.00;100615.31;5009870;28;20915;-74
2020/12/11 08:33:45;;;;;;;9.70;4.83;;;;;;;11.59;100.00;100614.25;5003307;28;20448;-77
2020/12/11 08:36:20;;;;;;;7.77;3.90;;;;;;;11.66;100.00;100604.94;5012206;28;20516;-77
2020/12/11 08:39:03;;;;;;;8.83;3.10;;;;;;;11.44;100.00;100602.22;5012209;28;20715;-73
2020/12/11 08:41:30;;;;;;;19.20;3.80;;;;;;;11.59;100.00;100601.94;5012838;28;20425;-74
2020/12/11 08:43:56;;;;;;;10.97;3.60;;;;;;;11.64;100.00;100598.97;5013123;28;20441;-73
2020/12/11 08:51:28;;;;;;;5.43;2.60;;;;;;;12.04;100.00;100594.25;5012924;28;20414;-72
2020/12/11 08:53:56;;;;;;;6.63;2.30;;;;;;;12.31;100.00;100593.09;5009688;28;20297;-72
2020/12/11 08:56:21;;;;;;;5.80;2.50;;;;;;;12.42;100.00;100586.06;5007193;28;20491;-73
2020/12/11 08:58:46;;;;;;;4.97;2.30;;;;;;;12.46;100.00;100595.38;5012317;28;20827;-74
2020/12/11 09:01:13;;;;;;;8.20;3.30;;;;;;;12.62;100.00;100583.66;5010619;28;20620;-72
2020/12/11 09:03:38;;;;;;;11.57;3.37;;;;;;;12.81;100.00;100590.97;5011643;28;20273;-72
2020/12/11 09:06:04;;;;;;;7.97;2.33;;;;;;;12.90;100.00;100584.97;5008669;28;20452;-72
2020/12/11 09:08:29;;;;;;;7.13;2.57;;;;;;;13.05;100.00;100578.47;5006842;28;20285;-74
2020/12/11 09:10:55;;;;;;;5.67;2.20;;;;;;;13.12;100.00;100586.75;5001425;28;20708;-73
2020/12/11 09:13:20;;;;;;;8.73;2.70;;;;;;;12.89;100.00;100581.50;5009914;28;20175;-73
2020/12/11 09:15:48;;;;;;;5.67;1.90;;;;;;;13.05;100.00;100589.88;5009625;28;20198;-73
2020/12/11 09:18:14;;;;;;;5.90;2.07;;;;;;;13.24;100.00;100584.00;5007560;28;20171;-73
2020/12/11 09:20:39;;;;;;;6.50;2.37;;;;;;;13.00;100.00;100584.13;5008776;28;20440;-74
2020/12/11 09:23:05;;;;;;;7.83;2.40;;;;;;;12.87;100.00;100593.13;5010073;28;20174;-74
2020/12/11 09:25:30;;;;;;;4.50;1.93;;;;;;;12.82;100.00;100590.00;5010205;28;20176;-73
2020/12/11 09:27:56;;;;;;;6.80;3.80;;;;;;;12.61;100.00;100600.44;5013675;28;20256;-71
2020/12/11 09:30:28;;;;;;;7.73;2.50;;;;;;;12.74;100.00;100595.88;5010235;28;20178;-74
2020/12/11 09:35:20;;;;;;;8.93;3.80;;;;;;;12.77;100.00;100593.88;5009766;28;20544;-74
2020/12/11 09:37:49;;;;;;;7.40;2.47;;;;;;;12.87;100.00;100591.34;5009306;28;20409;-73
2020/12/11 09:40:28;;;;;;;8.70;2.90;;;;;;;12.96;100.00;100587.13;5007116;28;20273;-74
2020/12/11 09:45:46;;;;;;;5.53;2.37;;;;;;;12.74;100.00;100588.81;5010691;28;20966;-74
2020/12/11 09:48:24;;;;;;;7.43;2.70;;;;;;;12.74;100.00;100588.81;4993465;28;20422;-74
2020/12/11 09:53:30;;;;;;;9.57;3.03;;;;;;;12.76;100.00;100578.16;5010398;28;21014;-74
2020/12/11 09:56:01;;;;;;;8.30;4.03;;;;;;;12.85;100.00;100577.44;5008407;28;20216;-72
2020/12/11 09:58:27;;;;;;;8.73;2.70;;;;;;;13.04;100.00;100567.09;5009728;28;20409;-73
2020/12/11 10:00:52;;;;;;;7.80;2.40;;;;;;;13.06;100.00;100572.25;5009505;28;21015;-73
2020/12/11 10:03:22;;;;;;;8.05;2.55;;;;;;;13.22;100.00;100566.59;5008457;28;20972;-73
2020/12/11 10:05:47;;;;;;;6.30;1.87;;;;;;;13.23;100.00;100570.94;5010133;28;20265;-72
2020/12/11 10:08:13;;;;;;;7.30;2.80;;;;;;;13.28;100.00;100569.59;5010067;28;20504;-73
2020/12/11 10:10:38;;;;;;;5.60;1.90;;;;;;;13.43;100.00;100559.59;5009865;28;20529;-73
2020/12/11 10:13:05;;;;;;;7.80;2.77;;;;;;;13.21;100.00;100570.19;5008315;28;20181;-73
2020/12/11 10:15:31;;;;;;;5.53;1.70;;;;;;;13.14;100.00;100563.72;5010798;28;20171;-72
2020/12/11 10:17:58;;;;;;;6.63;2.10;;;;;;;13.11;100.00;100574.53;5009435;28;20852;-73
2020/12/11 10:20:24;;;;;;;9.53;2.97;;;;;;;12.73;100.00;100570.50;5008405;28;20274;-75
2020/12/11 10:22:55;;;;;;;10.10;2.67;;;;;;;12.61;100.00;100593.34;4992344;28;20943;-74
2020/12/11 10:25:21;;;;;;;12.20;6.00;;;;;;;12.16;100.00;100574.84;5010573;28;20413;-72
2020/12/11 10:27:47;;;;;;;11.13;5.53;;;;;;;11.71;100.00;100583.53;5007070;28;20971;-73
2020/12/11 10:30:12;;;;;;;11.47;5.30;;;;;;;11.01;100.00;100589.50;5009546;28;20406;-73
2020/12/11 10:32:39;;;;;;;12.60;5.50;;;;;;;10.56;100.00;100599.66;5008581;28;20236;-74
2020/12/11 10:35:06;;;;;;;10.27;5.70;;;;;;;10.41;100.00;100595.44;5009439;28;20225;-73
2020/12/11 10:37:32;;;;;;;14.20;6.50;;;;;;;10.17;100.00;100593.53;5007846;28;20453;-74
2020/12/11 10:39:58;;;;;;;13.43;7.63;;;;;;;10.08;100.00;100582.81;5007945;28;20938;-73
2020/12/11 10:42:24;;;;;;;12.90;6.47;;;;;;;9.98;100.00;100574.72;5004965;28;20433;-72
2020/12/11 10:44:50;;;;;;;17.73;8.00;;;;;;;9.94;100.00;100583.72;4996955;28;20206;-72
2020/12/11 10:47:16;;;;;;;16.97;8.60;;;;;;;9.79;100.00;100585.59;5009570;28;20544;-76
2020/12/11 10:49:42;;;;;;;15.93;7.03;;;;;;;9.78;100.00;100588.31;5005855;28;20612;-73
2020/12/11 10:52:08;;;;;;;14.90;7.47;;;;;;;9.72;100.00;100581.69;5008301;28;20524;-75
2020/12/11 10:54:33;;;;;;;15.00;7.40;;;;;;;9.65;100.00;100583.03;5009404;28;20942;-76
2020/12/11 10:56:59;;;;;;;15.73;7.70;;;;;;;9.66;100.00;100582.06;5008761;28;20194;-74
2020/12/11 10:59:24;;;;;;;12.40;6.37;;;;;;;9.62;100.00;100573.59;5019203;28;20204;-76
2020/12/11 11:01:51;;;;;;;13.83;7.10;;;;;;;9.70;100.00;100568.66;5016757;28;20182;-75
2020/12/11 11:04:17;;;;;;;15.17;6.93;;;;;;;9.78;100.00;100573.41;5012377;28;20162;-74
2020/12/11 11:06:47;;;;;;;10.90;6.13;;;;;;;9.74;100.00;100570.13;5012915;28;20414;-76
2020/12/11 11:27:53;;;;;;;15.20;7.93;;;;;;;9.35;100.00;100581.44;5010789;28;20464;-76
2020/12/11 11:30:21;;;;;;;15.43;7.10;;;;;;;9.35;100.00;100585.84;5015964;28;20397;-76
2020/12/11 11:32:49;;;;;;;10.60;6.13;;;;;;;9.29;100.00;100594.09;5008329;28;20876;-74
2020/12/11 11:35:16;;;;;;;11.07;4.90;;;;;;;9.26;100.00;100579.41;5009511;28;20460;-74
2020/12/11 11:37:41;;;;;;;14.07;5.40;;;;;;;9.31;100.00;100587.00;5012439;28;20832;-74
2020/12/11 11:40:07;;;;;;;11.83;5.00;;;;;;;9.44;100.00;100585.25;5009437;28;20440;-74
2020/12/11 11:42:42;;;;;;;13.40;4.97;;;;;;;9.48;100.00;100580.66;5005745;28;20226;-75
2020/12/11 11:45:09;;;;;;;13.23;5.27;;;;;;;9.54;100.00;100588.97;5010382;28;20182;-75
2020/12/11 11:47:39;;;;;;;13.83;6.37;;;;;;;9.50;100.00;100582.22;5011022;28;21025;-75
2020/12/11 11:50:54;;;;;;;15.67;7.03;;;;;;;9.31;100.00;100589.63;4993233;28;20471;-75